Time;durP1;ratioP1;P1;durP2;ratioP2;P2;SDS_P1;SDS_P2;PMS_P1;PMS_P2;Temp;Humidity;BMP_temperature;BMP_pressure;BME280_temperature;BME280_humidity;BME280_pressure;Samples;Min_cycle;Max_cycle;Signal;HPM_P1;HPM_P2
2023/02/13 00:07:37;;;;;;;4.67;2.30;;;;;;;-1.41;100.00;101330.41;31248451;28;20470;-73
2023/02/13 00:22:39;;;;;;;1.70;1.60;;;;;;;-1.56;100.00;101323.59;31230785;28;20050;-73
2023/02/13 00:37:41;;;;;;;2.20;1.90;;;;;;;-1.80;100.00;101312.53;31226759;28;20093;-73
2023/02/13 00:52:43;;;;;;;1.90;1.80;;;;;;;-2.08;100.00;101317.22;31229756;28;20049;-71
2023/02/13 01:07:45;;;;;;;2.90;2.30;;;;;;;-2.28;100.00;101317.69;31221686;28;20604;-73
2023/02/13 01:22:48;;;;;;;3.10;2.50;;;;;;;-2.32;100.00;101322.84;31222121;28;20084;-72
2023/02/13 01:37:50;;;;;;;1.73;1.60;;;;;;;-2.58;100.00;101314.66;31221081;28;20111;-73
2023/02/13 01:53:03;;;;;;;2.43;2.10;;;;;;;-2.73;100.00;101322.97;31217084;28;20049;-73
2023/02/13 02:08:09;;;;;;;3.93;2.40;;;;;;;-2.88;100.00;101331.28;31223164;28;20050;-73
2023/02/13 02:23:11;;;;;;;2.50;2.13;;;;;;;-2.88;100.00;101352.53;31229890;28;20054;-72
2023/02/13 02:39:02;;;;;;;4.17;2.43;;;;;;;-2.92;100.00;101370.94;31214880;28;20531;-72
2023/02/13 03:25:06;;;;;;;2.63;2.43;;;;;;;-3.10;100.00;101391.22;31219046;28;20095;-72
2023/02/13 03:40:14;;;;;;;2.93;2.47;;;;;;;-3.23;100.00;101386.69;31214129;28;20084;-72
2023/02/13 04:10:54;;;;;;;3.30;3.00;;;;;;;-2.89;100.00;101393.47;31232331;28;20060;-73
2023/02/13 04:26:01;;;;;;;2.28;2.08;;;;;;;-3.29;100.00;101416.28;31240027;28;20049;-72
2023/02/13 04:41:03;;;;;;;7.40;2.87;;;;;;;-3.50;100.00;101437.06;31222749;28;20057;-72
2023/02/13 04:56:05;;;;;;;3.23;2.33;;;;;;;-3.64;100.00;101436.25;31247289;28;20091;-72
2023/02/13 05:11:07;;;;;;;3.00;2.43;;;;;;;-3.56;100.00;101433.75;31223257;28;20103;-72
2023/02/13 05:26:09;;;;;;;4.57;2.93;;;;;;;-3.26;100.00;101432.41;31223280;28;20548;-73
2023/02/13 05:41:12;;;;;;;7.87;2.90;;;;;;;-2.36;100.00;101443.44;31206656;28;20521;-73
2023/02/13 05:56:14;;;;;;;7.27;2.87;;;;;;;-2.15;100.00;101449.91;31219182;28;20083;-72
2023/02/13 06:11:16;;;;;;;5.00;3.07;;;;;;;-1.48;100.00;101452.59;31220554;28;20049;-74
2023/02/13 06:26:18;;;;;;;3.97;2.97;;;;;;;-0.22;100.00;101455.53;31217020;28;20077;-74
2023/02/13 06:41:20;;;;;;;3.77;2.70;;;;;;;0.98;100.00;101454.63;31221172;28;20057;-71
2023/02/13 06:56:22;;;;;;;1.93;1.73;;;;;;;1.77;94.37;101456.56;31223803;28;20053;-73
2023/02/13 07:11:24;;;;;;;2.50;2.03;;;;;;;2.38;91.88;101462.22;31237753;28;20060;-72
2023/02/13 07:26:26;;;;;;;3.93;2.53;;;;;;;2.61;93.20;101473.34;31252114;28;20057;-73
2023/02/13 07:41:28;;;;;;;3.50;2.10;;;;;;;2.08;93.25;101464.22;31242265;28;20057;-73
2023/02/13 07:56:30;;;;;;;4.70;1.83;;;;;;;3.05;91.64;101453.00;31242727;28;20041;-73
2023/02/13 08:26:52;;;;;;;5.13;2.20;;;;;;;5.18;73.52;101450.13;31263815;28;20056;-73
2023/02/13 08:41:54;;;;;;;5.80;2.37;;;;;;;4.45;77.25;101452.16;31241867;28;20104;-75
2023/02/13 08:56:56;;;;;;;5.03;2.90;;;;;;;6.46;68.21;101446.31;31226082;28;20195;-72
2023/02/13 09:11:59;;;;;;;6.53;2.27;;;;;;;5.29;70.66;101426.91;31192630;28;20208;-71
2023/02/13 09:27:03;;;;;;;4.13;2.77;;;;;;;7.26;65.31;101395.19;31226069;28;20046;-77
2023/02/13 09:42:35;;;;;;;3.77;2.03;;;;;;;7.97;57.39;101369.06;31220353;28;20111;-80
2023/02/13 09:57:45;;;;;;;3.73;1.77;;;;;;;9.11;54.34;101355.41;31246538;28;20111;-78
2023/02/13 10:13:09;;;;;;;6.10;1.93;;;;;;;8.87;50.51;101347.88;31233312;28;20052;-78
2023/02/13 10:28:19;;;;;;;4.50;1.63;;;;;;;8.22;51.74;101318.72;31221605;28;20072;-79
2023/02/13 10:43:26;;;;;;;3.57;1.63;;;;;;;7.83;54.43;101305.56;31199148;28;20516;-71
2023/02/13 10:58:55;;;;;;;6.27;2.30;;;;;;;8.59;51.42;101304.34;31226751;28;20386;-71
2023/02/13 11:14:26;;;;;;;5.10;2.07;;;;;;;7.54;56.19;101287.50;31246212;28;20049;-83
2023/02/13 11:29:32;;;;;;;5.87;3.10;;;;;;;7.29;57.96;101270.22;31254738;28;20057;-79
2023/02/13 11:44:34;;;;;;;2.97;2.23;;;;;;;7.60;55.63;101237.34;31208508;28;20119;-73
2023/02/13 11:59:42;;;;;;;5.00;2.60;;;;;;;6.37;59.93;101243.50;31254641;28;20580;-72
2023/02/13 12:14:45;;;;;;;7.97;2.67;;;;;;;6.13;61.76;101238.47;31233887;28;20053;-73
2023/02/13 12:29:50;;;;;;;3.77;2.30;;;;;;;5.56;66.00;101225.88;31234129;28;20053;-73
2023/02/13 12:44:57;;;;;;;12.67;5.90;;;;;;;5.65;68.05;101221.84;31230325;28;20156;-73
2023/02/13 13:00:17;;;;;;;3.53;2.53;;;;;;;5.88;67.91;101183.34;31243036;28;20060;-74
2023/02/13 13:15:37;;;;;;;8.40;2.70;;;;;;;5.58;66.47;101165.13;31247006;28;20072;-83
2023/02/13 13:30:42;;;;;;;4.53;2.20;;;;;;;5.12;68.66;101170.44;31278588;28;20061;-79
2023/02/13 13:46:26;;;;;;;9.40;3.57;;;;;;;4.99;73.24;101134.03;31253149;28;20081;-79
2023/02/13 14:01:31;;;;;;;8.87;2.60;;;;;;;4.88;79.96;101122.28;31243306;28;20085;-81
2023/02/13 14:16:42;;;;;;;13.80;2.90;;;;;;;4.78;89.14;101101.31;31247998;28;20048;-81
2023/02/13 14:32:04;;;;;;;34.40;12.63;;;;;;;4.66;95.17;101082.66;31254881;28;20061;-76
2023/02/13 14:47:41;;;;;;;12.20;4.30;;;;;;;4.58;100.00;101075.56;31255995;28;20100;-81
2023/02/13 15:02:50;;;;;;;;;;;;;;;4.53;100.00;101059.72;31217557;28;20076;-81
2023/02/13 15:17:59;;;;;;;7.13;2.70;;;;;;;4.43;100.00;101053.00;31247489;28;20299;-85
2023/02/13 15:33:14;;;;;;;10.83;2.70;;;;;;;4.50;100.00;101055.81;31274672;28;20053;-79
2023/02/13 15:48:17;;;;;;;7.53;2.93;;;;;;;4.43;100.00;101039.56;31247436;28;20464;-80
2023/02/13 16:03:19;;;;;;;6.23;2.70;;;;;;;4.23;100.00;101043.38;31256662;28;20107;-77
2023/02/13 16:18:21;;;;;;;7.00;2.43;;;;;;;4.16;100.00;101035.94;31281508;28;20049;-81
2023/02/13 16:33:31;;;;;;;4.50;2.50;;;;;;;4.36;100.00;101021.38;31245853;28;20107;-80
2023/02/13 16:48:34;;;;;;;3.67;2.20;;;;;;;4.26;100.00;101000.41;31243447;28;20062;-80
2023/02/13 17:03:36;;;;;;;3.60;2.30;;;;;;;4.20;100.00;100980.34;31235412;28;20057;-83
2023/02/13 17:18:39;;;;;;;12.20;4.37;;;;;;;4.16;100.00;100941.09;31234453;28;20049;-81
2023/02/13 17:33:42;;;;;;;8.20;3.93;;;;;;;4.08;99.78;100930.19;31259243;28;20131;-83
2023/02/13 17:48:43;;;;;;;6.07;2.73;;;;;;;3.95;100.00;100919.94;31257596;28;20053;-80
2023/02/13 18:03:45;;;;;;;6.70;2.80;;;;;;;3.88;100.00;100903.69;31230877;28;20048;-84
2023/02/13 18:18:47;;;;;;;4.37;2.70;;;;;;;4.18;100.00;100904.66;31202861;28;20054;-79
2023/02/13 18:33:49;;;;;;;6.20;2.77;;;;;;;3.92;100.00;100915.28;31208938;28;20069;-78
2023/02/13 18:48:51;;;;;;;7.07;3.23;;;;;;;4.12;96.95;100895.34;31197320;28;20750;-79
2023/02/13 19:03:53;;;;;;;4.53;2.80;;;;;;;4.29;94.39;100897.56;31230574;28;20496;-80
2023/02/13 19:18:59;;;;;;;5.80;2.90;;;;;;;4.30;96.59;100893.75;31246437;28;20057;-80
2023/02/13 19:34:01;;;;;;;5.70;2.70;;;;;;;4.35;98.59;100863.91;31270946;28;20049;-80
2023/02/13 19:49:03;;;;;;;5.60;3.50;;;;;;;4.33;100.00;100860.00;31253862;28;20054;-80
2023/02/13 20:04:05;;;;;;;9.57;4.03;;;;;;;4.28;100.00;100811.91;31245585;28;20133;-78
2023/02/13 20:19:10;;;;;;;9.83;4.10;;;;;;;3.92;100.00;100823.94;31260945;28;20572;-79
2023/02/13 20:34:12;;;;;;;13.30;5.87;;;;;;;4.03;100.00;100789.97;31257206;28;20088;-79
2023/02/13 20:49:19;;;;;;;10.63;5.27;;;;;;;3.85;100.00;100744.00;31247077;28;20074;-78
2023/02/13 21:04:20;;;;;;;14.83;6.37;;;;;;;3.72;100.00;100721.16;31250907;28;20052;-76
2023/02/13 21:19:23;;;;;;;12.63;6.33;;;;;;;3.71;100.00;100706.94;31230946;28;20049;-78
2023/02/13 21:34:25;;;;;;;15.03;6.80;;;;;;;3.56;100.00;100690.91;31224486;28;20577;-74
2023/02/13 21:49:27;;;;;;;16.50;6.93;;;;;;;3.48;100.00;100628.28;31236240;28;20103;-75
2023/02/13 22:04:29;;;;;;;15.37;7.33;;;;;;;3.45;100.00;100606.75;31208764;28;20053;-83
2023/02/13 22:19:32;;;;;;;16.60;6.67;;;;;;;3.50;100.00;100585.75;31266823;28;20547;-84
2023/02/13 22:34:34;;;;;;;11.87;6.47;;;;;;;3.39;100.00;100588.25;31252930;28;20046;-84
2023/02/13 22:49:35;;;;;;;17.27;7.17;;;;;;;3.22;100.00;100566.50;31273278;28;20135;-84
2023/02/13 23:04:39;;;;;;;18.00;7.37;;;;;;;3.37;100.00;100519.97;31234025;28;20053;-75
2023/02/13 23:19:41;;;;;;;14.13;7.07;;;;;;;3.41;100.00;100504.69;31214948;28;20050;-73
2023/02/13 23:34:43;;;;;;;17.27;6.77;;;;;;;3.31;100.00;100489.19;31213325;28;20061;-73
2023/02/13 23:49:45;;;;;;;14.33;6.47;;;;;;;3.55;100.00;100471.94;31227348;28;20090;-73
